Time;durP1;ratioP1;P1;durP2;ratioP2;P2;SDS_P1;SDS_P2;PMS_P1;PMS_P2;Temp;Humidity;BMP_temperature;BMP_pressure;BME280_temperature;BME280_humidity;BME280_pressure;Samples;Min_cycle;Max_cycle;Signal;HPM_P1;HPM_P2
2023/04/23 00:01:26;;;;;;;55.60;43.30;;;;;;;7.27;100.00;100582.72;4885590;28;20106;-79
2023/04/23 00:03:55;;;;;;;56.67;43.13;;;;;;;7.27;100.00;100579.22;4889327;28;20039;-78
2023/04/23 00:06:22;;;;;;;58.88;43.97;;;;;;;7.21;100.00;100580.34;4885364;28;20024;-79
2023/04/23 00:08:51;;;;;;;57.85;44.58;;;;;;;7.22;100.00;100569.66;4884737;29;20518;-78
2023/04/23 00:11:16;;;;;;;56.17;44.20;;;;;;;7.18;100.00;100573.38;4904959;28;20065;-79
2023/04/23 00:13:43;;;;;;;55.88;43.63;;;;;;;7.11;100.00;100557.84;4957472;28;20064;-78
2023/04/23 00:16:09;;;;;;;59.30;45.05;;;;;;;7.13;100.00;100569.19;4937942;28;20172;-79
2023/04/23 00:18:35;;;;;;;56.00;43.22;;;;;;;7.07;100.00;100559.75;4934579;28;20461;-79
2023/04/23 00:21:00;;;;;;;59.83;43.65;;;;;;;7.08;100.00;100560.59;4942092;28;20034;-79
2023/04/23 00:23:27;;;;;;;56.53;42.90;;;;;;;7.11;100.00;100563.13;4935355;28;20523;-80
2023/04/23 00:25:52;;;;;;;53.75;43.42;;;;;;;7.07;100.00;100559.75;4940542;28;20109;-80
2023/04/23 00:28:18;;;;;;;57.47;44.13;;;;;;;7.05;100.00;100553.63;4950560;28;20109;-79
2023/04/23 00:30:43;;;;;;;61.50;47.10;;;;;;;7.04;100.00;100554.56;4963289;28;20149;-80
2023/04/23 00:33:09;;;;;;;57.20;44.03;;;;;;;7.04;100.00;100566.94;4963315;28;20058;-80
2023/04/23 00:35:34;;;;;;;58.63;44.38;;;;;;;6.97;100.00;100553.94;4918311;28;20153;-79
2023/04/23 00:37:59;;;;;;;58.47;45.30;;;;;;;7.01;100.00;100553.81;4958107;28;20860;-79
2023/04/23 00:40:25;;;;;;;60.20;46.00;;;;;;;6.96;100.00;100549.56;4942013;28;20468;-80
2023/04/23 00:42:52;;;;;;;62.05;45.80;;;;;;;6.93;100.00;100547.03;4947428;28;20098;-82
2023/04/23 00:45:18;;;;;;;57.42;44.28;;;;;;;6.89;100.00;100556.03;4902641;28;20347;-80
2023/04/23 00:47:45;;;;;;;57.65;43.75;;;;;;;6.92;100.00;100545.34;4911560;28;20031;-79
2023/04/23 00:50:11;;;;;;;60.20;45.08;;;;;;;6.85;100.00;100538.56;4929437;28;20060;-78
2023/04/23 00:52:38;;;;;;;57.50;44.08;;;;;;;6.89;100.00;100540.16;4972448;28;20030;-80
2023/04/23 00:55:03;;;;;;;60.88;45.10;;;;;;;6.90;100.00;100539.25;4937800;28;20038;-79
2023/04/23 00:57:29;;;;;;;58.60;44.53;;;;;;;6.92;100.00;100533.91;4933335;28;20063;-79
2023/04/23 00:59:57;;;;;;;61.65;45.97;;;;;;;6.87;100.00;100520.84;4933350;28;20069;-78
2023/04/23 01:02:23;;;;;;;56.13;43.63;;;;;;;6.92;100.00;100534.75;4938841;28;20458;-80
2023/04/23 01:04:51;;;;;;;55.78;43.25;;;;;;;6.89;100.00;100529.56;4926725;28;20044;-81
2023/04/23 01:07:17;;;;;;;54.60;42.72;;;;;;;6.88;100.00;100527.00;4948599;28;20558;-79
2023/04/23 01:09:42;;;;;;;55.78;43.47;;;;;;;6.86;100.00;100519.13;4902598;28;20048;-79
2023/04/23 01:12:09;;;;;;;54.92;43.53;;;;;;;6.84;100.00;100514.81;4976793;28;20033;-78
2023/04/23 01:14:36;;;;;;;55.38;42.80;;;;;;;6.83;100.00;100521.91;4910927;28;20129;-80
2023/04/23 01:17:02;;;;;;;55.60;43.03;;;;;;;6.79;100.00;100504.44;4932008;28;20058;-80
2023/04/23 01:19:27;;;;;;;55.75;43.25;;;;;;;6.95;100.00;100517.91;4925918;28;20427;-80
2023/04/23 01:21:53;;;;;;;55.35;42.17;;;;;;;6.98;100.00;100512.47;4973771;28;20024;-80
2023/04/23 01:24:18;;;;;;;53.45;42.60;;;;;;;6.99;100.00;100506.28;4915210;28;20727;-80
2023/04/23 01:26:44;;;;;;;51.63;40.45;;;;;;;7.03;100.00;100507.00;4949520;28;20045;-78
2023/04/23 01:29:10;;;;;;;52.00;42.28;;;;;;;6.99;100.00;100511.56;4949534;28;20072;-79
2023/04/23 01:31:36;;;;;;;52.15;42.75;;;;;;;7.07;100.00;100517.41;4946553;28;20430;-80
2023/04/23 01:34:02;;;;;;;53.45;40.80;;;;;;;7.10;100.00;100519.88;4945741;28;20536;-80
2023/04/23 01:36:27;;;;;;;49.67;39.92;;;;;;;7.04;100.00;100500.78;4925643;28;20112;-80
2023/04/23 01:38:53;;;;;;;48.75;39.80;;;;;;;7.12;100.00;100510.13;4917364;28;20912;-80
2023/04/23 01:41:21;;;;;;;49.55;39.58;;;;;;;7.14;100.00;100510.03;4929506;28;20493;-80
2023/04/23 01:43:47;;;;;;;48.65;40.05;;;;;;;7.13;100.00;100517.13;4918167;28;20430;-80
2023/04/23 01:46:13;;;;;;;47.15;38.05;;;;;;;7.17;100.00;100504.63;4938652;28;20116;-78
2023/04/23 01:48:38;;;;;;;45.80;38.65;;;;;;;7.13;100.00;100492.44;4940327;28;20051;-80
2023/04/23 01:51:04;;;;;;;47.17;38.67;;;;;;;7.16;100.00;100500.28;4974486;28;20034;-79
2023/04/23 01:53:29;;;;;;;45.40;38.38;;;;;;;7.20;100.00;100501.88;4934189;28;20029;-79
2023/04/23 01:55:55;;;;;;;44.60;38.88;;;;;;;7.14;100.00;100499.47;4923689;28;20038;-80
2023/04/23 01:58:22;;;;;;;44.50;38.10;;;;;;;7.12;100.00;100504.81;4922978;28;20038;-80
2023/04/23 02:00:48;;;;;;;48.00;38.42;;;;;;;7.08;100.00;100505.03;4930284;28;20031;-78
2023/04/23 02:03:13;;;;;;;43.13;37.40;;;;;;;7.04;100.00;100511.38;4898182;28;20425;-79
2023/04/23 02:05:40;;;;;;;46.17;37.72;;;;;;;7.01;100.00;100506.19;4927793;28;20036;-79
2023/04/23 02:08:06;;;;;;;45.88;38.17;;;;;;;7.00;100.00;100502.69;4959035;28;20463;-80
2023/04/23 02:10:32;;;;;;;46.78;38.22;;;;;;;6.96;100.00;100496.66;4957983;28;20041;-79
2023/04/23 02:12:58;;;;;;;43.30;37.17;;;;;;;6.96;100.00;100506.38;4921751;28;20872;-80
2023/04/23 02:15:24;;;;;;;44.65;38.28;;;;;;;6.92;100.00;100500.34;4897170;28;20036;-79
2023/04/23 02:17:52;;;;;;;45.35;37.25;;;;;;;6.88;100.00;100493.47;4947320;28;20025;-80
2023/04/23 02:20:19;;;;;;;44.05;38.47;;;;;;;6.90;100.00;100489.00;4952530;28;20045;-80
2023/04/23 02:22:46;;;;;;;44.47;38.20;;;;;;;6.89;100.00;100491.69;4923097;28;20040;-80
2023/04/23 02:25:14;;;;;;;43.53;37.70;;;;;;;6.92;100.00;100487.13;4950293;28;20111;-79
2023/04/23 02:27:40;;;;;;;43.92;37.05;;;;;;;6.92;100.00;100489.78;4950200;28;20121;-79
2023/04/23 02:30:07;;;;;;;47.90;37.53;;;;;;;7.00;100.00;100494.75;4942785;28;20030;-80
2023/04/23 02:32:33;;;;;;;43.72;37.10;;;;;;;7.05;100.00;100486.63;4975718;28;20037;-79
2023/04/23 02:34:58;;;;;;;43.30;37.15;;;;;;;7.00;100.00;100465.66;4892111;28;20579;-79
2023/04/23 02:37:23;;;;;;;41.40;35.80;;;;;;;7.05;100.00;100476.03;4932190;28;20054;-79
2023/04/23 02:39:49;;;;;;;41.58;36.17;;;;;;;7.09;100.00;100486.41;4936632;28;20018;-80
2023/04/23 02:42:14;;;;;;;41.63;35.58;;;;;;;7.03;100.00;100484.03;4912498;28;20028;-79
2023/04/23 02:44:39;;;;;;;43.03;36.70;;;;;;;7.10;100.00;100487.28;4938912;28;20460;-80
2023/04/23 02:47:05;;;;;;;41.53;35.42;;;;;;;7.06;100.00;100486.53;4916013;28;20488;-81
2023/04/23 02:49:30;;;;;;;41.45;36.38;;;;;;;6.96;100.00;100482.56;4904588;28;20492;-80
2023/04/23 02:51:56;;;;;;;39.63;35.33;;;;;;;6.92;100.00;100481.84;4965542;28;20497;-79
2023/04/23 02:54:21;;;;;;;42.13;36.40;;;;;;;6.92;100.00;100486.28;4905642;28;20055;-80
2023/04/23 02:56:47;;;;;;;40.78;35.92;;;;;;;6.90;100.00;100478.41;4920605;28;20029;-79
2023/04/23 02:59:12;;;;;;;41.67;36.38;;;;;;;6.93;100.00;100478.25;4905988;28;20034;-80
2023/04/23 03:01:38;;;;;;;41.70;35.80;;;;;;;6.94;100.00;100485.28;4899710;28;20072;-80
2023/04/23 03:04:06;;;;;;;41.05;35.83;;;;;;;6.90;100.00;100466.97;4893576;28;20037;-79
2023/04/23 03:06:33;;;;;;;41.90;36.40;;;;;;;6.90;100.00;100473.13;4960851;28;20032;-80
2023/04/23 03:08:59;;;;;;;42.75;36.42;;;;;;;6.98;100.00;100478.06;4965446;28;20466;-80
2023/04/23 03:11:24;;;;;;;41.08;35.85;;;;;;;6.97;100.00;100479.84;4930638;28;20123;-80
2023/04/23 03:13:49;;;;;;;38.15;33.83;;;;;;;6.97;100.00;100474.56;4888736;28;20044;-80
2023/04/23 03:16:15;;;;;;;44.42;37.33;;;;;;;6.95;100.00;100465.84;4937667;28;20025;-79
2023/04/23 03:18:40;;;;;;;39.70;34.55;;;;;;;6.94;100.00;100466.78;4900826;28;20105;-79
2023/04/23 03:21:06;;;;;;;42.30;35.83;;;;;;;6.91;100.00;100472.19;4959181;28;20167;-80
2023/04/23 03:23:31;;;;;;;40.80;34.78;;;;;;;6.91;100.00;100466.03;4888148;28;20127;-79
2023/04/23 03:25:57;;;;;;;43.22;36.63;;;;;;;6.94;100.00;100461.47;4915571;28;20056;-79
2023/04/23 03:28:23;;;;;;;40.63;35.92;;;;;;;6.93;100.00;100465.03;4955903;28;20032;-80
2023/04/23 03:30:48;;;;;;;40.15;34.67;;;;;;;7.00;100.00;100465.66;4919222;28;20045;-80
2023/04/23 03:33:14;;;;;;;41.97;35.38;;;;;;;7.01;100.00;100458.56;4892439;28;20028;-78
2023/04/23 03:35:39;;;;;;;40.83;34.08;;;;;;;7.08;100.00;100452.94;4891141;28;20207;-79
2023/04/23 03:38:04;;;;;;;42.35;36.33;;;;;;;7.13;100.00;100455.41;4933415;28;20024;-80
2023/04/23 03:40:30;;;;;;;40.88;34.85;;;;;;;7.15;100.00;100451.78;4945077;28;20152;-80
2023/04/23 03:42:56;;;;;;;42.38;35.33;;;;;;;7.16;100.00;100452.63;4924907;28;20403;-80
2023/04/23 03:45:22;;;;;;;39.20;34.30;;;;;;;7.21;100.00;100461.22;4923388;28;21042;-79
2023/04/23 03:47:48;;;;;;;40.40;35.05;;;;;;;7.23;100.00;100465.53;4913121;28;20165;-82
2023/04/23 03:50:13;;;;;;;40.00;35.05;;;;;;;7.27;100.00;100466.25;4902433;28;20037;-79
2023/04/23 03:52:39;;;;;;;39.33;34.50;;;;;;;7.30;100.00;100466.13;4933637;28;20107;-79
2023/04/23 03:55:05;;;;;;;38.20;34.00;;;;;;;7.31;100.00;100462.53;4931023;28;20044;-79
2023/04/23 03:57:31;;;;;;;40.05;34.55;;;;;;;7.29;100.00;100451.16;4907823;28;20292;-80
2023/04/23 03:59:56;;;;;;;39.20;33.30;;;;;;;7.30;100.00;100452.88;4918319;28;20060;-79
2023/04/23 04:02:21;;;;;;;40.60;32.35;;;;;;;7.35;100.00;100466.78;4906376;28;20040;-79
2023/04/23 04:04:50;;;;;;;37.88;33.80;;;;;;;7.35;100.00;100456.19;4915869;28;20065;-80
2023/04/23 04:07:16;;;;;;;37.50;33.25;;;;;;;7.33;100.00;100449.25;4893479;28;20340;-79
2023/04/23 04:09:41;;;;;;;37.40;32.15;;;;;;;7.24;100.00;100440.78;4898262;28;20433;-79
2023/04/23 04:12:06;;;;;;;36.13;31.50;;;;;;;7.28;100.00;100467.97;4901802;28;20403;-80
2023/04/23 04:14:32;;;;;;;37.15;31.98;;;;;;;7.19;100.00;100458.66;4917168;28;20064;-80
2023/04/23 04:16:58;;;;;;;36.22;32.40;;;;;;;7.18;100.00;100461.34;4912032;28;20241;-79
2023/04/23 04:19:23;;;;;;;36.05;32.22;;;;;;;7.23;100.00;100475.25;4924443;28;20464;-79
2023/04/23 04:21:50;;;;;;;40.30;34.63;;;;;;;7.22;100.00;100468.22;4908680;28;20138;-78
2023/04/23 04:24:16;;;;;;;40.53;34.85;;;;;;;7.22;100.00;100473.53;4963231;28;21301;-79
2023/04/23 04:26:43;;;;;;;39.67;35.42;;;;;;;7.21;100.00;100467.38;4917997;28;20036;-80
2023/04/23 04:29:09;;;;;;;39.10;33.92;;;;;;;7.23;100.00;100469.94;4922360;28;20024;-80
2023/04/23 04:31:35;;;;;;;37.65;33.55;;;;;;;7.24;100.00;100471.69;4921278;28;20032;-79
2023/04/23 04:34:00;;;;;;;37.25;32.70;;;;;;;7.22;100.00;100473.53;4933203;28;20030;-79
2023/04/23 04:36:27;;;;;;;37.78;33.83;;;;;;;7.25;100.00;100468.09;4978628;28;20034;-80
2023/04/23 04:38:57;;;;;;;38.53;32.05;;;;;;;7.18;100.00;100458.69;4969378;28;20014;-80
2023/04/23 04:41:24;;;;;;;35.38;31.55;;;;;;;7.24;100.00;100471.69;4914345;28;20020;-79
2023/04/23 04:43:50;;;;;;;37.00;31.73;;;;;;;7.19;100.00;100460.41;4913105;28;20051;-80
2023/04/23 04:46:18;;;;;;;37.03;32.95;;;;;;;7.17;100.00;100468.44;4960591;28;20026;-80
2023/04/23 04:48:44;;;;;;;37.22;32.05;;;;;;;7.14;100.00;100465.91;4928607;28;20061;-80
2023/04/23 04:51:09;;;;;;;35.20;31.20;;;;;;;7.12;100.00;100466.91;4922727;28;20543;-80
2023/04/23 04:53:34;;;;;;;33.55;29.95;;;;;;;7.06;100.00;100462.72;4961656;28;20032;-79
2023/04/23 04:56:00;;;;;;;35.78;31.25;;;;;;;7.04;100.00;100469.03;4959174;28;20430;-80
2023/04/23 04:58:25;;;;;;;36.78;32.10;;;;;;;7.00;100.00;100463.00;4987415;28;20887;-79
2023/04/23 05:00:51;;;;;;;37.97;32.97;;;;;;;6.93;100.00;100464.16;4945047;28;20634;-79
2023/04/23 05:03:19;;;;;;;34.90;31.10;;;;;;;6.92;100.00;100467.75;4909609;28;20041;-79
2023/04/23 05:05:47;;;;;;;37.30;31.77;;;;;;;6.98;100.00;100476.31;4914267;28;20060;-79
2023/04/23 05:08:15;;;;;;;38.58;32.25;;;;;;;7.01;100.00;100470.00;4937286;28;20022;-81
2023/04/23 05:10:41;;;;;;;38.95;33.15;;;;;;;7.11;100.00;100478.44;4928012;28;20040;-79
2023/04/23 05:13:06;;;;;;;38.65;33.92;;;;;;;7.21;100.00;100471.81;4934463;28;20026;-78
2023/04/23 05:15:31;;;;;;;38.20;32.90;;;;;;;7.27;100.00;100463.59;4962878;28;20124;-78
2023/04/23 05:17:57;;;;;;;36.00;31.20;;;;;;;7.38;100.00;100471.09;4917072;28;20022;-78
2023/04/23 05:20:22;;;;;;;35.35;31.15;;;;;;;7.49;100.00;100479.44;4944176;28;20036;-80
2023/04/23 05:22:47;;;;;;;33.88;30.23;;;;;;;7.49;100.00;100469.69;4948270;28;20467;-80
2023/04/23 05:25:13;;;;;;;34.47;30.73;;;;;;;7.54;100.00;100466.84;4912719;28;20129;-80
2023/04/23 05:27:39;;;;;;;34.38;30.02;;;;;;;7.64;100.00;100465.47;4901445;28;20023;-80
2023/04/23 05:30:07;;;;;;;33.67;30.02;;;;;;;7.73;100.00;100474.81;4931921;28;20068;-79
2023/04/23 05:32:33;;;;;;;32.47;28.02;;;;;;;7.80;100.00;100476.25;4922163;28;20035;-80
2023/04/23 05:34:59;;;;;;;32.55;28.48;;;;;;;7.87;100.00;100475.06;4948955;28;20050;-81
2023/04/23 05:37:25;;;;;;;30.80;27.52;;;;;;;7.88;100.00;100468.81;4921445;28;20022;-79
2023/04/23 05:39:50;;;;;;;32.17;28.77;;;;;;;7.97;100.00;100473.69;4912949;28;20036;-80
2023/04/23 05:42:16;;;;;;;32.97;29.48;;;;;;;8.03;100.00;100469.06;4923622;28;20041;-80
2023/04/23 05:44:41;;;;;;;31.77;28.20;;;;;;;8.16;100.00;100478.16;4920910;28;20084;-80
2023/04/23 05:47:08;;;;;;;31.33;28.05;;;;;;;8.17;100.00;100469.28;4944027;28;20069;-80
2023/04/23 05:49:33;;;;;;;30.73;27.40;;;;;;;8.19;100.00;100475.34;4921156;28;20036;-80
2023/04/23 05:51:59;;;;;;;28.83;25.70;;;;;;;8.17;100.00;100467.47;4900086;28;20564;-79
2023/04/23 05:54:24;;;;;;;29.63;26.42;;;;;;;8.17;100.00;100462.19;4964158;28;20172;-80
2023/04/23 05:56:49;;;;;;;30.13;26.92;;;;;;;8.26;100.00;100465.31;4950132;28;20032;-79
2023/04/23 05:59:15;;;;;;;29.98;26.77;;;;;;;8.44;100.00;100468.00;4940593;28;20050;-78
2023/04/23 06:01:40;;;;;;;29.55;26.35;;;;;;;8.71;100.00;100473.75;4917085;28;20045;-80
2023/04/23 06:04:06;;;;;;;28.27;24.65;;;;;;;8.94;100.00;100477.91;4954916;28;20617;-79
2023/04/23 06:06:31;;;;;;;26.63;23.88;;;;;;;9.10;100.00;100470.03;4940299;28;20533;-80
2023/04/23 06:08:57;;;;;;;24.75;22.08;;;;;;;9.20;100.00;100471.31;4946630;28;20049;-79
2023/04/23 06:11:22;;;;;;;23.85;21.35;;;;;;;9.33;100.00;100468.03;4935903;28;20735;-80
2023/04/23 06:13:48;;;;;;;22.30;20.10;;;;;;;9.46;100.00;100466.44;4938410;28;20141;-79
2023/04/23 06:16:13;;;;;;;21.80;19.70;;;;;;;9.65;100.00;100456.53;4954002;28;20026;-80
2023/04/23 06:18:39;;;;;;;21.25;19.15;;;;;;;9.79;100.00;100455.84;4956211;28;20649;-80
2023/04/23 06:21:04;;;;;;;20.88;18.70;;;;;;;9.89;100.00;100449.06;4949920;28;20322;-80
2023/04/23 06:23:31;;;;;;;19.95;18.05;;;;;;;10.09;100.00;100447.13;4934886;28;20059;-81
2023/04/23 06:25:56;;;;;;;18.95;17.05;;;;;;;10.21;100.00;100444.66;4954559;28;20042;-81
2023/04/23 06:28:22;;;;;;;20.10;17.73;;;;;;;10.37;100.00;100446.50;4939878;28;20119;-80
2023/04/23 06:30:47;;;;;;;18.60;16.45;;;;;;;10.64;100.00;100436.91;4919721;28;20029;-80
2023/04/23 06:33:13;;;;;;;19.90;17.90;;;;;;;10.81;100.00;100433.28;4935943;28;20076;-80
2023/04/23 06:35:38;;;;;;;18.73;16.83;;;;;;;11.00;100.00;100433.06;4971135;28;20050;-80
2023/04/23 06:38:04;;;;;;;16.42;14.82;;;;;;;11.23;100.00;100437.00;4949113;28;20103;-82
2023/04/23 06:40:29;;;;;;;15.40;13.90;;;;;;;11.41;100.00;100432.38;4951347;28;20075;-80
2023/04/23 06:42:54;;;;;;;14.25;12.77;;;;;;;11.44;100.00;100433.03;4937267;28;20621;-80
2023/04/23 06:45:20;;;;;;;13.25;11.90;;;;;;;11.45;100.00;100445.44;4954557;28;20403;-79
2023/04/23 06:47:45;;;;;;;13.75;12.30;;;;;;;11.50;100.00;100442.50;4892823;28;20055;-79
2023/04/23 06:50:11;;;;;;;13.35;11.60;;;;;;;11.61;100.00;100436.50;4978239;28;20026;-80
2023/04/23 06:52:37;;;;;;;14.85;11.23;;;;;;;11.65;100.00;100432.69;4891008;28;20491;-83
2023/04/23 06:55:02;;;;;;;11.48;10.27;;;;;;;11.78;100.00;100427.44;4911484;28;20041;-80
2023/04/23 06:57:27;;;;;;;13.50;10.40;;;;;;;12.04;100.00;100426.72;4936233;28;20037;-80
2023/04/23 06:59:53;;;;;;;13.25;10.98;;;;;;;12.23;100.00;100426.38;4926751;28;20040;-80
2023/04/23 07:02:19;;;;;;;11.38;8.88;;;;;;;12.33;100.00;100440.84;4886543;28;20052;-80
2023/04/23 07:04:45;;;;;;;12.18;9.48;;;;;;;12.57;100.00;100432.19;4960511;28;20034;-80
2023/04/23 07:07:11;;;;;;;10.30;8.77;;;;;;;12.68;100.00;100440.34;4926162;28;20447;-80
2023/04/23 07:09:36;;;;;;;8.75;7.95;;;;;;;12.93;99.74;100419.06;4933500;28;20023;-79
2023/04/23 07:12:02;;;;;;;10.43;7.85;;;;;;;13.12;97.14;100429.34;4938504;28;20088;-80
2023/04/23 07:14:27;;;;;;;10.10;8.48;;;;;;;13.29;95.84;100425.56;4979125;28;20028;-80
2023/04/23 07:16:53;;;;;;;9.15;7.28;;;;;;;13.42;95.63;100422.91;4949883;28;20448;-78
2023/04/23 07:19:19;;;;;;;8.98;7.70;;;;;;;13.57;94.91;100419.16;4933685;28;20037;-80
2023/04/23 07:21:44;;;;;;;8.68;7.57;;;;;;;13.87;93.60;100423.31;4940168;28;20113;-80
2023/04/23 07:24:10;;;;;;;10.00;7.22;;;;;;;14.19;91.41;100412.97;4909698;28;20125;-80
2023/04/23 07:26:35;;;;;;;7.78;6.50;;;;;;;14.31;88.55;100413.91;4923081;28;20071;-80
2023/04/23 07:29:02;;;;;;;8.98;6.30;;;;;;;14.57;87.17;100417.34;4928132;28;20083;-79
2023/04/23 07:31:27;;;;;;;9.57;6.60;;;;;;;14.86;86.85;100412.50;4910445;28;20390;-80
2023/04/23 07:33:55;;;;;;;8.20;5.97;;;;;;;15.24;83.85;100414.06;4937696;28;20051;-80
2023/04/23 07:36:20;;;;;;;10.85;5.88;;;;;;;15.42;81.98;100423.38;4932842;28;20110;-81
2023/04/23 07:38:46;;;;;;;7.72;5.13;;;;;;;15.64;81.41;100412.72;4977073;28;20032;-79
2023/04/23 07:41:11;;;;;;;6.20;5.15;;;;;;;16.01;77.07;100409.78;4912754;28;20026;-80
2023/04/23 07:43:37;;;;;;;8.00;5.07;;;;;;;16.04;77.13;100411.34;4914628;28;20033;-81
2023/04/23 07:46:03;;;;;;;7.18;4.63;;;;;;;16.27;76.25;100418.41;4935336;28;20029;-81
2023/04/23 07:48:29;;;;;;;9.10;5.10;;;;;;;16.31;75.28;100410.97;4938313;28;20055;-79
2023/04/23 07:50:55;;;;;;;10.18;4.80;;;;;;;16.55;72.99;100405.38;4945180;28;20066;-80
2023/04/23 07:53:21;;;;;;;7.15;3.97;;;;;;;16.86;71.12;100415.31;4934495;28;20378;-81
2023/04/23 07:55:46;;;;;;;6.50;4.18;;;;;;;17.04;70.20;100398.63;4923385;28;20155;-79
2023/04/23 07:58:12;;;;;;;8.43;3.92;;;;;;;17.51;70.38;100402.59;4919998;28;20053;-79
2023/04/23 08:00:38;;;;;;;7.15;3.70;;;;;;;17.66;67.25;100395.03;4898361;28;20379;-80
2023/04/23 08:03:03;;;;;;;7.05;3.70;;;;;;;17.99;67.28;100399.31;4913548;28;20102;-80
2023/04/23 08:05:28;;;;;;;8.85;3.60;;;;;;;18.35;66.34;100408.66;4914415;28;20516;-80
2023/04/23 08:07:54;;;;;;;8.45;3.80;;;;;;;18.87;67.38;100403.03;4899389;28;20337;-81
2023/04/23 08:10:19;;;;;;;7.13;3.22;;;;;;;19.44;61.13;100389.59;4904908;28;20037;-81
2023/04/23 08:12:44;;;;;;;8.85;3.95;;;;;;;19.64;60.57;100391.28;4943936;28;20064;-80
2023/04/23 08:15:10;;;;;;;6.30;3.00;;;;;;;20.17;59.59;100377.13;4944681;28;20528;-81
2023/04/23 08:17:36;;;;;;;7.43;3.10;;;;;;;20.25;58.54;100384.47;4901598;28;20558;-80
2023/04/23 08:20:03;;;;;;;5.85;3.10;;;;;;;20.75;58.45;100384.00;4883203;28;20120;-80
2023/04/23 08:22:28;;;;;;;9.02;3.30;;;;;;;21.11;54.61;100390.25;4902456;28;20426;-83
2023/04/23 08:24:53;;;;;;;7.28;3.22;;;;;;;21.37;53.41;100383.00;4967239;28;20022;-81
2023/04/23 08:27:19;;;;;;;9.77;3.30;;;;;;;21.21;52.64;100388.28;4897564;28;20489;-80
2023/04/23 08:29:45;;;;;;;6.57;2.90;;;;;;;21.54;51.90;100378.56;4886800;28;20131;-79
2023/04/23 08:32:10;;;;;;;7.03;2.90;;;;;;;22.05;53.37;100371.34;4891451;28;20022;-80
2023/04/23 08:34:36;;;;;;;6.57;2.80;;;;;;;22.55;49.45;100369.66;4982051;28;20050;-80
2023/04/23 08:37:01;;;;;;;8.73;3.08;;;;;;;23.02;49.28;100374.44;4906660;28;20032;-80
2023/04/23 08:39:27;;;;;;;8.45;2.85;;;;;;;23.37;45.80;100378.69;4905466;28;20028;-80
2023/04/23 08:42:03;;;;;;;6.18;2.33;;;;;;;23.42;46.76;100387.16;4890704;28;20095;-80
2023/04/23 08:44:30;;;;;;;7.53;2.83;;;;;;;23.29;44.93;100387.69;4916980;28;20040;-80
2023/04/23 08:47:00;;;;;;;7.15;2.40;;;;;;;23.62;45.15;100376.75;4915738;28;20033;-81
2023/04/23 08:49:32;;;;;;;6.60;2.17;;;;;;;24.23;45.18;100371.59;4907148;28;20103;-81
2023/04/23 08:52:05;;;;;;;5.10;2.05;;;;;;;24.32;43.91;100368.66;4957434;28;20057;-81
2023/04/23 08:54:30;;;;;;;;;;;;;;;25.03;45.21;100376.69;4923297;28;20913;-80
2023/04/23 08:56:57;;;;;;;7.13;2.50;;;;;;;23.40;45.12;100380.19;4970972;28;19966;-80
2023/04/23 08:59:28;;;;;;;6.40;2.50;;;;;;;23.19;46.01;100380.72;4905756;28;20037;-82
2023/04/23 09:01:55;;;;;;;7.20;2.88;;;;;;;22.75;45.65;100383.75;4899281;28;20029;-80
2023/04/23 09:04:21;;;;;;;6.47;2.40;;;;;;;23.02;45.10;100374.44;4887294;28;20040;-81
2023/04/23 09:06:46;;;;;;;5.88;2.30;;;;;;;23.60;42.46;100378.78;4892838;28;20050;-81
2023/04/23 09:09:15;;;;;;;5.90;2.35;;;;;;;23.93;42.44;100376.84;4906116;28;20038;-81
2023/04/23 09:11:41;;;;;;;5.32;2.55;;;;;;;24.60;40.68;100376.34;4886518;28;20120;-81
2023/04/23 09:14:07;;;;;;;6.22;2.10;;;;;;;24.87;40.63;100365.94;4909729;28;20110;-82
2023/04/23 09:16:33;;;;;;;4.53;2.10;;;;;;;25.65;39.21;100378.34;4896837;28;20112;-82
2023/04/23 09:18:58;;;;;;;4.22;2.05;;;;;;;26.24;36.63;100365.50;4905718;28;20040;-81
2023/04/23 09:21:23;;;;;;;5.10;2.08;;;;;;;26.44;37.12;100364.91;4955162;28;20349;-80
2023/04/23 09:23:51;;;;;;;7.53;2.50;;;;;;;26.60;36.06;100359.25;4939914;28;20131;-82
2023/04/23 09:26:21;;;;;;;5.78;1.90;;;;;;;25.66;35.81;100361.78;4918567;28;20032;-81
2023/04/23 09:28:50;;;;;;;6.20;2.20;;;;;;;24.32;38.02;100365.09;4915987;28;21020;-81
2023/04/23 09:31:21;;;;;;;4.93;2.00;;;;;;;23.43;40.05;100360.84;4892406;28;20071;-81
2023/04/23 09:33:54;;;;;;;5.25;2.38;;;;;;;23.26;41.46;100360.00;4993857;28;20026;-81
2023/04/23 09:36:21;;;;;;;6.63;2.27;;;;;;;24.02;38.36;100354.03;4935939;28;20087;-79
2023/04/23 09:38:48;;;;;;;5.45;2.10;;;;;;;24.19;38.19;100348.50;4914606;28;20037;-81
2023/04/23 09:41:24;;;;;;;4.43;2.20;;;;;;;23.50;39.53;100342.84;4924785;28;20032;-79
2023/04/23 09:43:55;;;;;;;5.97;2.53;;;;;;;23.22;41.10;100345.09;4923591;28;20039;-81
2023/04/23 09:46:36;;;;;;;5.43;2.30;;;;;;;23.63;40.85;100347.72;4895853;28;20051;-82
2023/04/23 09:49:06;;;;;;;6.28;1.90;;;;;;;24.01;38.31;100346.91;4931407;28;20207;-81
2023/04/23 09:51:34;;;;;;;4.85;1.70;;;;;;;24.46;37.05;100358.09;4887563;28;20216;-82
2023/04/23 09:54:02;;;;;;;4.75;2.08;;;;;;;23.89;38.16;100339.31;4909074;28;20036;-81
2023/04/23 09:56:29;;;;;;;4.10;1.63;;;;;;;23.22;39.87;100343.22;4925895;28;20047;-82
2023/04/23 09:58:55;;;;;;;4.20;2.05;;;;;;;21.91;39.70;100347.59;4897936;28;20035;-81
2023/04/23 10:01:28;;;;;;;4.22;2.03;;;;;;;20.62;43.35;100344.69;4899608;28;20036;-82
2023/04/23 10:03:55;;;;;;;4.38;1.77;;;;;;;20.09;44.26;100336.50;4952015;28;20062;-81
2023/04/23 10:06:31;;;;;;;5.88;2.25;;;;;;;19.41;46.66;100342.19;4969433;28;20084;-82
2023/04/23 10:08:57;;;;;;;4.00;2.03;;;;;;;18.71;48.39;100348.84;4899811;28;20074;-82
2023/04/23 10:11:24;;;;;;;6.88;2.45;;;;;;;18.26;50.46;100347.50;4906920;28;20036;-81
2023/04/23 10:13:52;;;;;;;3.83;1.83;;;;;;;18.15;50.83;100348.47;4895188;28;20080;-82
2023/04/23 10:16:19;;;;;;;4.53;2.13;;;;;;;18.50;51.40;100328.22;4898714;28;20478;-83
2023/04/23 10:18:46;;;;;;;5.82;2.47;;;;;;;18.99;50.18;100339.03;4961100;28;20041;-82
2023/04/23 10:21:13;;;;;;;5.40;2.17;;;;;;;18.79;51.08;100325.56;4893536;28;20036;-82
2023/04/23 10:23:43;;;;;;;6.70;2.17;;;;;;;19.22;50.06;100334.13;4907920;28;20033;-81
2023/04/23 10:26:10;;;;;;;5.60;2.00;;;;;;;19.64;49.36;100338.13;4897670;28;20166;-81
2023/04/23 10:28:38;;;;;;;4.45;2.13;;;;;;;20.02;48.26;100329.97;4890001;28;20163;-81
2023/04/23 10:31:05;;;;;;;6.30;2.38;;;;;;;19.94;48.41;100324.50;4893127;28;20029;-82
2023/04/23 10:33:32;;;;;;;4.63;2.20;;;;;;;20.12;49.03;100328.09;4951064;28;20027;-80
2023/04/23 10:35:58;;;;;;;7.13;2.35;;;;;;;19.89;47.94;100336.59;4968534;28;20050;-81
2023/04/23 10:38:27;;;;;;;5.40;2.10;;;;;;;19.62;49.43;100317.69;4970191;28;20862;-80
2023/04/23 10:40:55;;;;;;;5.60;2.33;;;;;;;19.68;49.31;100321.66;4929944;28;20027;-80
2023/04/23 10:43:22;;;;;;;6.63;2.45;;;;;;;19.60;48.84;100314.25;4943310;28;20464;-81
2023/04/23 10:45:48;;;;;;;8.77;2.38;;;;;;;19.44;49.50;100297.84;4961156;28;20042;-80
2023/04/23 10:48:14;;;;;;;4.18;2.13;;;;;;;19.31;49.34;100300.88;4950412;28;20030;-80
2023/04/23 10:50:40;;;;;;;7.07;2.13;;;;;;;19.91;48.37;100304.06;4895049;28;20056;-81
2023/04/23 10:53:17;;;;;;;6.97;2.17;;;;;;;21.34;47.27;100298.56;4978877;28;20073;-81
2023/04/23 10:55:43;;;;;;;4.53;1.80;;;;;;;21.66;44.43;100295.16;4966230;28;20535;-81
2023/04/23 10:58:08;;;;;;;4.88;2.08;;;;;;;20.99;44.85;100284.13;4944979;28;20131;-81
2023/04/23 11:00:39;;;;;;;4.05;2.00;;;;;;;20.86;46.98;100298.06;4909406;28;20066;-80
2023/04/23 11:03:25;;;;;;;4.60;2.33;;;;;;;21.35;45.20;100279.44;4963401;28;20456;-81
2023/04/23 11:05:50;;;;;;;4.63;2.40;;;;;;;21.02;45.33;100282.94;4973501;28;20199;-81
2023/04/23 11:08:15;;;;;;;6.15;2.30;;;;;;;21.05;46.40;100280.75;4935168;28;20164;-81
2023/04/23 11:10:55;;;;;;;5.93;2.05;;;;;;;21.11;46.13;100280.16;4918880;28;20302;-80